X  Stänga Metar väderdata för luftfart     LIPX Verona-Villafranca Valerio Catullo Airport
Temperatur
6°C Temperatur
4°C Daggpunkt
87% Fuktighet



Vind
5 KM/T
3 MPH
1 M/S
3 KTS



360°
N
Nuvarande omständigheter

Klar Klar
Tryck 1018.92 (hPa) - 30.09 (inHg)
Synlighet 6.2 (mil) - 10 (km)
Flygplats
Flygplatskod LIPX

Plats: Verona-Villafranca Valerio Catullo Airport
Distans: 0 (km)

Metar:
LIPX 251720Z 36003KT CAVOK 06/04 Q1019

Tid: 25-11-2022 18:20 CET